Time;durP1;ratioP1;P1;durP2;ratioP2;P2;SDS_P1;SDS_P2;PMS_P1;PMS_P2;Temp;Humidity;BMP_temperature;BMP_pressure;BME280_temperature;BME280_humidity;BME280_pressure;Samples;Min_cycle;Max_cycle;Signal;HPM_P1;HPM_P2
2021/04/02 00:02:23;;;;;;;7.83;3.17;;;14.20;99.90;;;;;;4923467;29;20213;-94
2021/04/02 00:04:53;;;;;;;9.17;3.10;;;14.00;99.90;;;;;;4922248;29;20213;-94
2021/04/02 00:07:23;;;;;;;8.70;3.03;;;13.90;99.90;;;;;;4925600;29;20221;-94
2021/04/02 00:09:54;;;;;;;7.33;2.90;;;14.00;99.90;;;;;;4924608;29;20213;-94
2021/04/02 00:12:26;;;;;;;6.43;3.20;;;14.00;99.90;;;;;;4921645;29;20248;-94
2021/04/02 00:14:57;;;;;;;7.90;3.20;;;13.90;99.90;;;;;;4921672;29;20217;-93
2021/04/02 00:17:28;;;;;;;8.77;3.23;;;13.90;99.90;;;;;;4925387;29;20205;-93
2021/04/02 00:19:59;;;;;;;7.20;3.00;;;13.80;99.90;;;;;;4928135;29;20228;-93
2021/04/02 00:22:29;;;;;;;6.50;3.13;;;13.80;99.90;;;;;;4928690;29;20237;-93
2021/04/02 00:25:00;;;;;;;7.63;3.20;;;13.80;99.90;;;;;;4938309;29;20229;-94
2021/04/02 00:27:32;;;;;;;7.33;2.87;;;13.80;99.90;;;;;;4939160;29;20210;-93
2021/04/02 00:30:08;;;;;;;9.30;2.80;;;13.80;99.90;;;;;;4937355;29;20299;-93
2021/04/02 00:32:38;;;;;;;5.93;3.03;;;13.90;99.90;;;;;;4938722;29;20239;-93
2021/04/02 00:35:14;;;;;;;10.60;3.13;;;14.00;99.90;;;;;;4935211;29;20189;-94
2021/04/02 00:37:45;;;;;;;13.17;4.10;;;13.90;99.90;;;;;;4931270;29;20213;-94
2021/04/02 00:40:22;;;;;;;7.43;3.00;;;13.80;99.90;;;;;;4907545;29;20225;-93
2021/04/02 00:42:56;;;;;;;6.33;3.30;;;13.70;99.90;;;;;;4905866;29;20210;-93
2021/04/02 00:45:28;;;;;;;8.03;2.90;;;13.70;99.90;;;;;;4901682;29;20217;-94
2021/04/02 00:48:03;;;;;;;6.37;2.77;;;13.70;99.90;;;;;;4902055;29;20290;-94
2021/04/02 00:50:40;;;;;;;10.10;3.53;;;13.70;99.90;;;;;;4900722;29;20238;-94
2021/04/02 00:53:11;;;;;;;5.87;3.03;;;13.70;99.90;;;;;;4901153;29;20233;-93
2021/04/02 00:55:43;;;;;;;6.97;2.97;;;13.70;99.90;;;;;;4900618;29;20234;-94
2021/04/02 00:58:19;;;;;;;10.03;3.40;;;13.70;99.90;;;;;;4906791;29;20205;-94
2021/04/02 01:00:51;;;;;;;10.73;3.10;;;13.70;99.90;;;;;;4919578;29;20236;-93
2021/04/02 01:03:22;;;;;;;6.93;2.93;;;13.70;99.90;;;;;;4919366;29;20216;-92
2021/04/02 01:05:56;;;;;;;6.30;3.03;;;13.60;99.90;;;;;;4918756;29;20205;-94
2021/04/02 01:08:29;;;;;;;7.93;2.70;;;13.60;99.90;;;;;;4920570;29;20669;-93
2021/04/02 01:11:02;;;;;;;7.87;2.97;;;13.60;99.90;;;;;;4923708;29;20236;-94
2021/04/02 01:13:39;;;;;;;6.87;2.97;;;13.50;99.90;;;;;;4923029;29;20273;-94
2021/04/02 01:16:13;;;;;;;7.10;2.90;;;13.40;99.90;;;;;;4936988;29;20211;-93
2021/04/02 01:18:51;;;;;;;8.83;3.10;;;13.30;99.90;;;;;;4935770;29;20220;-93
2021/04/02 01:21:27;;;;;;;10.67;3.03;;;13.20;99.90;;;;;;4935628;29;20215;-92
2021/04/02 01:24:17;;;;;;;6.67;3.17;;;13.10;99.90;;;;;;4926653;29;20240;-93
2021/04/02 01:27:09;;;;;;;7.63;3.27;;;13.10;99.90;;;;;;4927475;29;20310;-92
2021/04/02 01:29:45;;;;;;;11.20;3.53;;;13.00;99.90;;;;;;4924053;29;20220;-93
2021/04/02 01:32:19;;;;;;;8.70;3.50;;;13.00;99.90;;;;;;4923149;29;20237;-93
2021/04/02 01:34:52;;;;;;;13.33;3.83;;;12.90;99.90;;;;;;4920797;29;20243;-93
2021/04/02 01:37:28;;;;;;;10.93;3.80;;;12.80;99.90;;;;;;4921681;29;20293;-94
2021/04/02 01:40:01;;;;;;;8.27;3.13;;;12.70;99.90;;;;;;4922046;29;20247;-92
2021/04/02 01:42:35;;;;;;;10.33;3.70;;;12.60;99.90;;;;;;4922129;29;20213;-92
2021/04/02 01:45:11;;;;;;;15.77;3.70;;;12.60;99.90;;;;;;4950781;28;20213;-92
2021/04/02 01:47:46;;;;;;;10.87;4.13;;;12.50;99.90;;;;;;4923707;29;20213;-92
2021/04/02 01:50:21;;;;;;;8.40;4.00;;;12.50;99.90;;;;;;4922821;29;20669;-92
2021/04/02 01:52:52;;;;;;;13.53;4.30;;;12.50;99.90;;;;;;4922672;29;20240;-93
2021/04/02 01:55:26;;;;;;;6.13;3.30;;;12.40;99.90;;;;;;4922041;29;20205;-93
2021/04/02 01:57:57;;;;;;;7.90;3.87;;;12.50;99.90;;;;;;4923325;29;20578;-93
2021/04/02 02:00:32;;;;;;;15.83;4.10;;;12.50;99.90;;;;;;4929721;29;20205;-93
2021/04/02 02:03:04;;;;;;;10.00;3.83;;;12.40;99.90;;;;;;4932393;29;20212;-92
2021/04/02 02:05:35;;;;;;;14.37;3.80;;;12.40;99.90;;;;;;4960845;28;20217;-91
2021/04/02 02:08:07;;;;;;;8.63;3.80;;;12.40;99.90;;;;;;4933252;29;20666;-93
2021/04/02 02:10:38;;;;;;;10.57;3.47;;;12.40;99.90;;;;;;4931433;29;20217;-93
2021/04/02 02:13:11;;;;;;;15.80;4.10;;;12.40;99.90;;;;;;4931096;29;20288;-93
2021/04/02 02:15:44;;;;;;;16.93;3.70;;;12.30;99.90;;;;;;4929996;29;20221;-92
2021/04/02 02:18:17;;;;;;;18.30;4.17;;;12.30;99.90;;;;;;4931601;29;20221;-92
2021/04/02 02:20:49;;;;;;;8.47;4.10;;;12.20;99.90;;;;;;4927773;29;20213;-93
2021/04/02 02:23:21;;;;;;;11.63;3.83;;;12.10;99.90;;;;;;4926259;29;20620;-92
2021/04/02 02:25:52;;;;;;;8.70;3.17;;;12.00;99.90;;;;;;4939671;29;20215;-92
2021/04/02 02:28:23;;;;;;;10.10;4.30;;;11.90;99.90;;;;;;4924771;29;20209;-92
2021/04/02 02:30:56;;;;;;;11.27;3.30;;;11.80;99.90;;;;;;4925612;29;20201;-92
2021/04/02 02:33:31;;;;;;;11.63;3.37;;;11.60;99.90;;;;;;4927116;29;20249;-93
2021/04/02 02:36:02;;;;;;;13.50;4.13;;;11.50;99.90;;;;;;4920986;29;20226;-93
2021/04/02 02:38:36;;;;;;;9.60;3.43;;;11.30;99.90;;;;;;4925162;29;20208;-92
2021/04/02 02:41:08;;;;;;;10.87;3.80;;;11.10;99.90;;;;;;4920879;29;20209;-93
2021/04/02 02:43:38;;;;;;;9.30;4.00;;;11.10;99.90;;;;;;4921075;29;20288;-92
2021/04/02 02:46:10;;;;;;;10.60;4.13;;;11.00;99.90;;;;;;4921602;29;20300;-93
2021/04/02 02:48:47;;;;;;;11.83;3.90;;;10.80;99.90;;;;;;4924671;29;20213;-94
2021/04/02 02:51:20;;;;;;;11.13;4.07;;;10.70;99.90;;;;;;4922049;29;20295;-94
2021/04/02 02:53:50;;;;;;;11.37;4.53;;;10.60;99.90;;;;;;4920494;29;20256;-93
2021/04/02 02:56:23;;;;;;;12.63;3.57;;;10.50;99.90;;;;;;4921682;29;20205;-93
2021/04/02 02:58:55;;;;;;;11.27;3.93;;;10.50;99.90;;;;;;4923005;29;20193;-93
2021/04/02 03:01:29;;;;;;;12.47;4.40;;;10.40;99.90;;;;;;4922982;29;20689;-93
2021/04/02 03:04:00;;;;;;;13.33;4.10;;;10.20;99.90;;;;;;4921850;29;20205;-93
2021/04/02 03:06:38;;;;;;;8.67;4.20;;;10.10;99.90;;;;;;4920820;29;20288;-93
2021/04/02 03:09:12;;;;;;;5.57;3.63;;;10.00;99.90;;;;;;4910125;29;20206;-93
2021/04/02 03:11:45;;;;;;;10.50;4.10;;;9.90;99.90;;;;;;4908160;29;20257;-93
2021/04/02 03:14:20;;;;;;;10.30;3.77;;;9.80;99.90;;;;;;4906019;29;20245;-92
2021/04/02 03:16:55;;;;;;;10.57;4.00;;;9.70;99.90;;;;;;4905191;29;20213;-92
2021/04/02 03:19:28;;;;;;;11.77;4.07;;;9.60;99.90;;;;;;4907096;29;20217;-92
2021/04/02 03:22:02;;;;;;;8.93;4.07;;;9.60;99.90;;;;;;4909026;29;20220;-92
2021/04/02 03:24:34;;;;;;;11.40;4.03;;;9.50;99.90;;;;;;4909902;29;20209;-93
2021/04/02 03:27:06;;;;;;;12.90;4.77;;;9.50;99.90;;;;;;4910477;29;20209;-92
2021/04/02 03:29:37;;;;;;;11.50;4.60;;;9.40;99.90;;;;;;4909452;29;20277;-92
2021/04/02 03:32:13;;;;;;;8.17;3.97;;;9.40;99.90;;;;;;4903324;29;20209;-93
2021/04/02 03:34:45;;;;;;;8.93;4.57;;;9.30;99.90;;;;;;4902743;29;20217;-92
2021/04/02 03:37:16;;;;;;;12.73;4.70;;;9.20;99.90;;;;;;4904791;29;20242;-92
2021/04/02 03:39:48;;;;;;;11.53;4.33;;;9.20;99.90;;;;;;4921740;29;20267;-92
2021/04/02 03:42:20;;;;;;;9.03;3.83;;;9.10;99.90;;;;;;4938705;29;20188;-92
2021/04/02 03:44:53;;;;;;;6.63;3.30;;;9.10;99.90;;;;;;4935512;29;20206;-92
2021/04/02 03:47:27;;;;;;;9.80;3.70;;;9.10;99.90;;;;;;4925191;29;20212;-92
2021/04/02 03:50:00;;;;;;;11.47;4.10;;;9.10;99.90;;;;;;4926133;29;20279;-93
2021/04/02 03:52:35;;;;;;;7.63;4.20;;;9.00;99.90;;;;;;4923753;29;20270;-93
2021/04/02 03:55:08;;;;;;;9.20;4.03;;;8.90;99.90;;;;;;4922575;29;20220;-92
2021/04/02 03:57:40;;;;;;;8.30;4.10;;;8.90;99.90;;;;;;4925107;29;20292;-93
2021/04/02 04:00:17;;;;;;;11.33;4.83;;;8.80;99.90;;;;;;4920944;29;20264;-93
2021/04/02 04:02:52;;;;;;;10.13;4.13;;;8.70;99.90;;;;;;4920498;29;20216;-93
2021/04/02 04:05:27;;;;;;;8.87;4.10;;;8.70;99.90;;;;;;4920308;29;20267;-91
2021/04/02 04:07:59;;;;;;;7.43;3.80;;;8.70;99.90;;;;;;4921967;29;20295;-92
2021/04/02 04:10:31;;;;;;;9.83;3.60;;;8.60;99.90;;;;;;4920987;29;20212;-92
2021/04/02 04:13:03;;;;;;;7.23;3.87;;;8.50;99.90;;;;;;4919565;29;20682;-93
2021/04/02 04:15:35;;;;;;;12.10;3.23;;;8.50;99.90;;;;;;4920004;29;20213;-92
2021/04/02 04:18:08;;;;;;;7.87;3.80;;;8.50;99.90;;;;;;4922786;29;20260;-92
2021/04/02 04:20:41;;;;;;;8.07;3.77;;;8.40;99.90;;;;;;4920562;29;20216;-92
2021/04/02 04:23:18;;;;;;;7.47;3.50;;;8.30;99.90;;;;;;4920196;29;20696;-92
2021/04/02 04:25:54;;;;;;;10.27;3.93;;;8.30;99.90;;;;;;4921431;29;20228;-92
2021/04/02 04:28:28;;;;;;;9.20;3.73;;;8.30;99.90;;;;;;4927755;29;20231;-92
2021/04/02 04:31:02;;;;;;;8.53;3.77;;;8.20;99.90;;;;;;4931211;29;20212;-92
2021/04/02 04:33:35;;;;;;;8.50;3.37;;;8.10;99.90;;;;;;4931093;29;20268;-92
2021/04/02 04:36:09;;;;;;;9.07;4.07;;;8.10;99.90;;;;;;4929421;29;20201;-92
2021/04/02 04:38:41;;;;;;;7.83;3.30;;;8.00;99.90;;;;;;4929966;29;20302;-92
2021/04/02 04:41:13;;;;;;;7.73;3.70;;;7.90;99.90;;;;;;4929541;29;20209;-92
2021/04/02 04:43:46;;;;;;;10.30;3.97;;;7.90;99.90;;;;;;4929815;29;20235;-92
2021/04/02 04:46:17;;;;;;;10.23;4.77;;;7.90;99.90;;;;;;4932939;29;20207;-92
2021/04/02 04:48:50;;;;;;;7.73;4.03;;;7.80;99.90;;;;;;4928492;29;20256;-93
2021/04/02 04:51:22;;;;;;;10.07;4.57;;;7.80;99.90;;;;;;4925290;29;20231;-93
2021/04/02 04:53:56;;;;;;;9.83;4.20;;;7.70;99.90;;;;;;4921167;29;20240;-92
2021/04/02 04:56:30;;;;;;;10.80;3.90;;;7.70;99.90;;;;;;4923516;29;20244;-93
2021/04/02 04:59:05;;;;;;;8.13;3.43;;;7.70;99.90;;;;;;4922876;29;20206;-93
2021/04/02 05:01:41;;;;;;;10.13;3.27;;;7.60;99.90;;;;;;4921742;29;20212;-93
2021/04/02 05:04:18;;;;;;;11.53;4.37;;;7.60;99.90;;;;;;4922844;29;20247;-94
2021/04/02 05:06:52;;;;;;;7.00;3.80;;;7.50;99.90;;;;;;4923732;29;20291;-94
2021/04/02 05:09:25;;;;;;;9.57;4.03;;;7.50;99.90;;;;;;4923120;29;20272;-93
2021/04/02 05:12:01;;;;;;;11.60;4.87;;;7.40;99.90;;;;;;4922350;29;20218;-93
2021/04/02 05:14:33;;;;;;;11.20;4.47;;;7.40;99.90;;;;;;4923544;29;20243;-94
2021/04/02 05:17:04;;;;;;;9.17;3.80;;;7.30;99.90;;;;;;4925180;29;20248;-93
2021/04/02 05:19:37;;;;;;;10.93;3.73;;;7.30;99.90;;;;;;4926583;29;20211;-93
2021/04/02 05:22:13;;;;;;;12.03;4.60;;;7.20;99.90;;;;;;4931438;29;20218;-93
2021/04/02 05:24:43;;;;;;;12.30;3.87;;;7.20;99.90;;;;;;4930299;29;20215;-92
2021/04/02 05:27:14;;;;;;;9.13;4.17;;;7.20;99.90;;;;;;4924466;29;20252;-92
2021/04/02 05:29:48;;;;;;;9.53;4.60;;;7.20;99.90;;;;;;4928006;29;20216;-91
2021/04/02 05:32:21;;;;;;;12.53;6.70;;;7.10;99.90;;;;;;4925573;29;20212;-93
2021/04/02 05:34:53;;;;;;;12.87;5.57;;;7.10;99.90;;;;;;4911618;29;20212;-92
2021/04/02 05:37:24;;;;;;;13.63;5.60;;;7.00;99.90;;;;;;4905145;29;20206;-92
2021/04/02 05:39:55;;;;;;;12.97;6.57;;;7.00;99.90;;;;;;4905756;29;20210;-92
2021/04/02 05:42:27;;;;;;;15.60;9.30;;;7.00;99.90;;;;;;4910846;29;20662;-88
2021/04/02 05:45:01;;;;;;;11.80;7.37;;;6.90;99.90;;;;;;4909391;29;20284;-92
2021/04/02 05:47:33;;;;;;;16.57;8.47;;;6.80;99.90;;;;;;4906781;29;20217;-92
2021/04/02 05:50:06;;;;;;;13.13;7.70;;;6.80;99.90;;;;;;4913869;29;20209;-92
2021/04/02 05:52:41;;;;;;;16.70;8.07;;;6.70;99.90;;;;;;4922866;29;20220;-92
2021/04/02 05:55:14;;;;;;;15.23;7.73;;;6.70;99.90;;;;;;4923218;29;20185;-91
2021/04/02 05:57:45;;;;;;;14.07;7.10;;;6.70;99.90;;;;;;4923178;29;20275;-92
2021/04/02 06:00:16;;;;;;;11.47;6.03;;;6.60;99.90;;;;;;4922855;29;20281;-91
2021/04/02 06:02:48;;;;;;;11.53;5.67;;;6.60;99.90;;;;;;4922323;29;20213;-93
2021/04/02 06:05:22;;;;;;;13.97;4.37;;;6.50;99.90;;;;;;4922932;29;20194;-92
2021/04/02 06:07:54;;;;;;;10.83;4.27;;;6.40;99.90;;;;;;4922508;29;20216;-91
2021/04/02 06:10:24;;;;;;;17.13;4.87;;;6.30;99.90;;;;;;4912522;29;20559;-92
2021/04/02 06:12:57;;;;;;;7.27;4.10;;;6.30;99.90;;;;;;4903919;29;20240;-92
2021/04/02 06:15:30;;;;;;;9.43;4.83;;;6.30;99.90;;;;;;4909244;29;20305;-91
2021/04/02 06:18:06;;;;;;;10.47;4.33;;;6.30;99.90;;;;;;4924065;29;20588;-91
2021/04/02 06:20:44;;;;;;;8.30;3.67;;;6.20;99.90;;;;;;4923580;29;20327;-92
2021/04/02 06:23:16;;;;;;;9.57;3.87;;;6.20;99.90;;;;;;4921459;29;20614;-91
2021/04/02 06:25:51;;;;;;;10.17;4.03;;;6.20;99.90;;;;;;4922702;29;20204;-91
2021/04/02 06:28:24;;;;;;;7.37;4.07;;;6.20;99.90;;;;;;4923918;29;20209;-91
2021/04/02 06:31:02;;;;;;;13.83;4.40;;;6.20;99.90;;;;;;4921667;29;20214;-91
2021/04/02 06:33:35;;;;;;;9.43;4.03;;;6.10;99.90;;;;;;4921123;29;20706;-92
2021/04/02 06:36:16;;;;;;;8.10;4.07;;;6.10;99.90;;;;;;4921664;29;20211;-91
2021/04/02 06:38:48;;;;;;;9.73;3.80;;;6.10;99.90;;;;;;4920592;29;20660;-90
2021/04/02 06:41:19;;;;;;;11.87;3.80;;;6.10;99.90;;;;;;4924022;29;20657;-91
2021/04/02 06:43:51;;;;;;;9.67;4.30;;;6.10;99.90;;;;;;4925358;29;20248;-91
2021/04/02 06:46:28;;;;;;;9.97;4.17;;;6.00;99.90;;;;;;4932216;29;20216;-92
2021/04/02 06:49:10;;;;;;;9.90;4.30;;;6.00;99.90;;;;;;4933078;29;20281;-92
2021/04/02 06:51:45;;;;;;;10.13;3.90;;;6.00;99.90;;;;;;4930761;29;20209;-93
2021/04/02 06:54:25;;;;;;;13.43;4.00;;;6.00;99.90;;;;;;4930666;29;20325;-92
2021/04/02 06:57:04;;;;;;;10.13;4.03;;;6.00;99.90;;;;;;4928786;29;20212;-93
2021/04/02 06:59:36;;;;;;;11.20;4.27;;;5.90;99.90;;;;;;4929088;29;20216;-93
2021/04/02 07:02:08;;;;;;;7.03;3.93;;;5.80;99.90;;;;;;4929944;29;20276;-93
2021/04/02 07:04:41;;;;;;;15.37;4.23;;;5.80;99.90;;;;;;4931813;29;20212;-92
2021/04/02 07:07:15;;;;;;;13.73;4.40;;;5.70;99.90;;;;;;4929087;29;20265;-92
2021/04/02 07:09:45;;;;;;;12.03;3.97;;;5.70;99.90;;;;;;4926373;29;20189;-92
2021/04/02 07:12:19;;;;;;;10.40;4.03;;;5.70;99.90;;;;;;4909111;29;20294;-93
2021/04/02 07:14:52;;;;;;;10.50;4.50;;;5.70;99.90;;;;;;4902737;29;20245;-91
2021/04/02 07:17:23;;;;;;;12.20;3.70;;;5.70;99.90;;;;;;4902512;29;20219;-91
2021/04/02 07:19:53;;;;;;;12.63;4.37;;;5.70;99.90;;;;;;4902630;29;20209;-92
2021/04/02 07:22:27;;;;;;;7.57;3.90;;;5.70;99.90;;;;;;4902185;29;20234;-92
2021/04/02 07:25:00;;;;;;;10.90;4.77;;;5.60;99.90;;;;;;4902516;29;20688;-92
2021/04/02 07:27:35;;;;;;;10.93;4.10;;;5.60;99.90;;;;;;4901913;29;20265;-91
2021/04/02 07:30:07;;;;;;;19.00;4.37;;;5.60;99.90;;;;;;4902323;29;20296;-91
2021/04/02 07:32:41;;;;;;;11.17;4.10;;;5.50;99.90;;;;;;4900803;29;20206;-90
2021/04/02 07:35:18;;;;;;;11.77;4.03;;;5.40;99.90;;;;;;4902563;29;20240;-92
2021/04/02 07:37:56;;;;;;;8.53;4.27;;;5.40;99.90;;;;;;4902387;29;20213;-92
2021/04/02 07:40:30;;;;;;;11.27;4.53;;;5.40;99.90;;;;;;4912177;29;20269;-92
2021/04/02 07:43:02;;;;;;;10.03;4.13;;;5.40;99.90;;;;;;4920350;29;20662;-91
2021/04/02 07:45:37;;;;;;;7.03;3.80;;;5.40;99.90;;;;;;4920528;29;20624;-92
2021/04/02 07:48:17;;;;;;;10.27;4.53;;;5.40;99.90;;;;;;4950542;29;20686;-92
2021/04/02 07:50:50;;;;;;;12.47;4.17;;;5.40;99.90;;;;;;4920968;29;20232;-92
2021/04/02 07:53:43;;;;;;;11.50;3.87;;;5.40;99.90;;;;;;4920215;29;20228;-92
2021/04/02 07:56:17;;;;;;;9.03;4.30;;;5.30;99.90;;;;;;4920536;29;20228;-92
2021/04/02 07:58:52;;;;;;;8.83;3.63;;;5.30;99.90;;;;;;4920506;29;20217;-92
2021/04/02 08:01:24;;;;;;;8.87;4.10;;;5.30;99.90;;;;;;4925338;29;20247;-92
2021/04/02 08:03:55;;;;;;;7.13;3.90;;;5.20;99.90;;;;;;4920080;29;20208;-93
2021/04/02 08:06:34;;;;;;;13.77;4.13;;;5.20;99.90;;;;;;4923305;29;20232;-92
2021/04/02 08:09:09;;;;;;;10.17;4.17;;;5.20;99.90;;;;;;4923284;29;20247;-92
2021/04/02 08:11:46;;;;;;;7.63;3.40;;;5.20;99.90;;;;;;4922285;29;20208;-93
2021/04/02 08:14:33;;;;;;;10.63;4.40;;;5.20;99.90;;;;;;4923775;29;20256;-92
2021/04/02 08:17:07;;;;;;;10.60;4.57;;;5.20;99.90;;;;;;4926295;29;20212;-91
2021/04/02 08:19:41;;;;;;;11.17;4.07;;;5.20;99.90;;;;;;4931688;29;20208;-92
2021/04/02 08:22:15;;;;;;;10.00;4.00;;;5.20;99.90;;;;;;4922835;29;20216;-91
2021/04/02 08:24:49;;;;;;;11.93;4.70;;;5.20;99.90;;;;;;4927664;29;20201;-92
2021/04/02 08:27:19;;;;;;;11.63;4.47;;;5.10;99.90;;;;;;4922191;29;20248;-92
2021/04/02 08:30:02;;;;;;;15.73;5.37;;;5.10;99.90;;;;;;4922925;29;20281;-92
2021/04/02 08:32:35;;;;;;;16.00;5.43;;;5.10;99.90;;;;;;4921540;29;20239;-91
2021/04/02 08:35:07;;;;;;;15.00;5.00;;;5.10;99.90;;;;;;4921609;29;20237;-91
2021/04/02 08:37:38;;;;;;;8.27;4.37;;;5.10;99.90;;;;;;4920603;29;20227;-92
2021/04/02 08:40:13;;;;;;;9.90;4.40;;;5.10;99.90;;;;;;4919203;29;20205;-91
2021/04/02 08:42:43;;;;;;;9.13;4.70;;;5.10;99.90;;;;;;4920193;29;20204;-91
2021/04/02 08:45:20;;;;;;;15.57;4.80;;;5.10;99.90;;;;;;4921445;29;20303;-92
2021/04/02 08:47:51;;;;;;;13.07;4.40;;;5.10;99.90;;;;;;4922456;29;20261;-92
2021/04/02 08:50:23;;;;;;;10.97;4.37;;;5.20;99.90;;;;;;4923926;29;20248;-92
2021/04/02 08:53:03;;;;;;;7.27;4.00;;;5.20;99.90;;;;;;4927873;29;20216;-92
2021/04/02 08:55:35;;;;;;;9.30;3.90;;;5.30;99.90;;;;;;4926958;29;20268;-91
2021/04/02 08:58:07;;;;;;;8.00;4.50;;;5.40;99.90;;;;;;4927149;29;20240;-92
2021/04/02 09:00:38;;;;;;;12.57;4.67;;;5.50;99.90;;;;;;4929785;29;20236;-92
2021/04/02 09:03:09;;;;;;;11.50;4.47;;;5.50;99.90;;;;;;4930262;29;20213;-92
2021/04/02 09:05:42;;;;;;;10.57;4.33;;;5.60;99.90;;;;;;4931869;29;20220;-92
2021/04/02 09:08:13;;;;;;;11.17;4.50;;;5.70;99.90;;;;;;4932106;29;20213;-91
2021/04/02 09:10:45;;;;;;;13.47;5.13;;;5.80;99.90;;;;;;4933310;29;20238;-92
2021/04/02 09:13:16;;;;;;;10.47;4.60;;;5.90;99.90;;;;;;4930556;29;20655;-92
2021/04/02 09:15:47;;;;;;;12.63;5.20;;;6.00;99.90;;;;;;4924899;29;20659;-91
2021/04/02 09:18:27;;;;;;;10.53;5.00;;;6.00;99.90;;;;;;4924382;29;20296;-91
2021/04/02 09:20:59;;;;;;;10.77;4.90;;;6.00;99.90;;;;;;4923983;29;20228;-91
2021/04/02 09:23:29;;;;;;;11.57;5.30;;;6.00;99.90;;;;;;4924228;29;20281;-91
2021/04/02 09:26:10;;;;;;;18.23;5.40;;;6.10;99.90;;;;;;4924497;29;20687;-91
2021/04/02 09:28:41;;;;;;;14.13;5.00;;;6.10;99.90;;;;;;4923620;29;20216;-91
2021/04/02 09:31:18;;;;;;;13.17;5.73;;;6.20;99.90;;;;;;4926222;29;20205;-90
2021/04/02 09:33:50;;;;;;;11.77;4.97;;;6.30;99.90;;;;;;4926040;29;20769;-91
2021/04/02 09:36:21;;;;;;;16.00;5.30;;;6.30;99.90;;;;;;4924994;29;20209;-91
2021/04/02 09:38:52;;;;;;;15.30;5.10;;;6.40;99.90;;;;;;4932021;29;20236;-91
2021/04/02 09:41:26;;;;;;;13.40;5.10;;;6.50;99.90;;;;;;4933571;29;20256;-91
2021/04/02 09:43:57;;;;;;;12.53;5.70;;;6.50;99.90;;;;;;4931319;29;20243;-91
2021/04/02 09:46:32;;;;;;;17.47;5.77;;;6.50;99.90;;;;;;4928786;29;20267;-91
2021/04/02 09:49:08;;;;;;;12.03;5.23;;;6.60;99.90;;;;;;4959970;29;20215;-92
2021/04/02 09:51:42;;;;;;;13.97;5.37;;;6.70;99.90;;;;;;4924145;29;20215;-92
2021/04/02 09:54:13;;;;;;;14.40;5.63;;;6.70;99.90;;;;;;4928032;29;20235;-92
2021/04/02 09:56:48;;;;;;;11.60;5.33;;;6.80;99.90;;;;;;4922792;29;20230;-91
2021/04/02 09:59:19;;;;;;;12.27;6.03;;;6.90;99.90;;;;;;4923276;29;20228;-92
2021/04/02 10:01:50;;;;;;;12.03;5.37;;;6.90;99.90;;;;;;4924558;29;20203;-92
2021/04/02 10:04:20;;;;;;;17.70;6.00;;;7.00;99.90;;;;;;4923399;29;20304;-91
2021/04/02 10:06:51;;;;;;;13.80;5.43;;;7.00;99.90;;;;;;4923868;29;20209;-92
2021/04/02 10:09:22;;;;;;;15.63;6.10;;;7.00;99.90;;;;;;4922025;29;20234;-92
2021/04/02 10:11:54;;;;;;;14.70;5.27;;;7.00;99.90;;;;;;4950854;28;20259;-92
2021/04/02 10:14:25;;;;;;;16.10;5.97;;;7.00;99.90;;;;;;4919632;29;20324;-92
2021/04/02 10:16:55;;;;;;;11.27;5.37;;;7.10;99.90;;;;;;4912272;29;20212;-91
2021/04/02 10:19:26;;;;;;;12.23;5.13;;;7.10;99.90;;;;;;4923991;29;20210;-91
2021/04/02 10:21:57;;;;;;;21.97;5.83;;;7.00;99.90;;;;;;4923679;29;20316;-91
2021/04/02 10:24:28;;;;;;;8.10;5.10;;;7.00;99.90;;;;;;4925164;29;20447;-91
2021/04/02 10:27:01;;;;;;;12.07;5.50;;;7.00;99.90;;;;;;4922903;29;20272;-91
2021/04/02 10:29:32;;;;;;;14.87;5.90;;;7.00;99.90;;;;;;4922890;29;20204;-91
2021/04/02 10:32:03;;;;;;;14.20;5.80;;;7.00;99.90;;;;;;4923183;29;20602;-91
2021/04/02 10:34:34;;;;;;;10.87;5.13;;;7.00;99.90;;;;;;4921545;29;20265;-91
2021/04/02 10:37:06;;;;;;;15.03;5.13;;;6.90;99.90;;;;;;4935183;29;20212;-91
2021/04/02 10:39:39;;;;;;;17.23;5.40;;;6.70;99.90;;;;;;4939549;28;20216;-91
2021/04/02 10:42:11;;;;;;;13.07;5.20;;;6.70;99.90;;;;;;4936222;29;20280;-91
2021/04/02 10:44:44;;;;;;;14.77;5.50;;;6.80;99.90;;;;;;4926248;29;20286;-91
2021/04/02 10:47:15;;;;;;;15.23;5.23;;;6.80;99.90;;;;;;4922704;29;20529;-92
2021/04/02 10:49:49;;;;;;;17.07;5.67;;;6.80;99.90;;;;;;4921606;29;20674;-92
2021/04/02 10:52:19;;;;;;;12.77;5.20;;;6.70;99.90;;;;;;4919571;29;20590;-92
2021/04/02 10:54:50;;;;;;;14.30;5.23;;;6.70;99.90;;;;;;4921390;29;20658;-93
2021/04/02 10:57:23;;;;;;;15.30;5.63;;;6.60;99.90;;;;;;4924484;29;20292;-92
2021/04/02 10:59:53;;;;;;;12.80;5.63;;;6.60;99.90;;;;;;4922670;29;20674;-92
2021/04/02 11:02:27;;;;;;;13.60;4.60;;;6.60;99.90;;;;;;4922935;29;20241;-92
2021/04/02 11:04:59;;;;;;;17.53;4.83;;;6.60;99.90;;;;;;4928690;29;20300;-92
2021/04/02 11:07:30;;;;;;;15.17;5.63;;;6.70;99.90;;;;;;4927116;29;20216;-92
2021/04/02 11:10:05;;;;;;;10.40;4.77;;;6.70;99.90;;;;;;4930061;29;20220;-92
2021/04/02 11:12:38;;;;;;;10.97;4.60;;;6.60;99.90;;;;;;4924784;29;20567;-92
2021/04/02 11:15:12;;;;;;;14.43;4.67;;;6.60;99.90;;;;;;4915243;29;20229;-92
2021/04/02 11:17:44;;;;;;;18.40;5.03;;;6.60;99.90;;;;;;4918973;29;20230;-91
2021/04/02 11:20:17;;;;;;;12.57;4.93;;;6.60;99.90;;;;;;4920655;29;20212;-91
2021/04/02 11:22:48;;;;;;;16.37;5.30;;;6.50;99.90;;;;;;4917541;29;20222;-91
2021/04/02 11:25:18;;;;;;;13.13;5.40;;;6.50;99.90;;;;;;4919071;29;20202;-91
2021/04/02 11:27:51;;;;;;;10.57;5.30;;;6.40;99.90;;;;;;4918111;29;20206;-91
2021/04/02 11:30:24;;;;;;;15.70;6.57;;;6.50;99.90;;;;;;4921307;29;20197;-92
2021/04/02 11:32:54;;;;;;;15.57;5.80;;;6.40;99.90;;;;;;4920462;29;20197;-91
2021/04/02 11:35:27;;;;;;;15.33;5.53;;;6.50;99.90;;;;;;4920490;29;20237;-91
2021/04/02 11:37:59;;;;;;;17.97;6.47;;;6.50;99.90;;;;;;4924312;29;20237;-91
2021/04/02 11:40:31;;;;;;;11.30;5.50;;;6.50;99.90;;;;;;4937684;28;20237;-90
2021/04/02 11:43:05;;;;;;;12.53;5.90;;;6.50;99.90;;;;;;4928602;29;20292;-91
2021/04/02 11:45:36;;;;;;;15.87;5.57;;;6.50;99.90;;;;;;4921056;29;20208;-92
2021/04/02 11:48:07;;;;;;;12.80;5.43;;;6.50;99.90;;;;;;4952169;28;20249;-93
2021/04/02 11:50:38;;;;;;;14.70;6.47;;;6.50;99.90;;;;;;4921460;29;20308;-93
2021/04/02 11:53:09;;;;;;;11.63;5.97;;;6.40;99.90;;;;;;4919894;29;20480;-93
2021/04/02 11:55:40;;;;;;;13.30;5.30;;;6.50;99.90;;;;;;4920023;29;20288;-92
2021/04/02 11:58:13;;;;;;;14.13;5.60;;;6.50;99.90;;;;;;4919298;29;20291;-92
2021/04/02 12:00:45;;;;;;;15.83;5.63;;;6.50;99.90;;;;;;4949829;28;20209;-92
2021/04/02 12:03:15;;;;;;;19.17;6.13;;;6.50;99.90;;;;;;4922735;29;20221;-92
2021/04/02 12:05:46;;;;;;;12.80;5.70;;;6.50;99.90;;;;;;4923781;29;20201;-92
2021/04/02 12:08:18;;;;;;;13.73;5.40;;;6.60;99.90;;;;;;4926001;29;20260;-92
2021/04/02 12:10:48;;;;;;;10.23;5.70;;;6.60;99.90;;;;;;4924445;29;20209;-89
2021/04/02 12:13:20;;;;;;;22.40;7.00;;;6.60;99.90;;;;;;4920989;29;20243;-91
2021/04/02 12:15:52;;;;;;;15.33;6.20;;;6.60;99.90;;;;;;4923728;29;20245;-91
2021/04/02 12:18:23;;;;;;;11.47;5.80;;;6.50;99.90;;;;;;4922179;29;20296;-91
2021/04/02 12:20:54;;;;;;;16.17;6.27;;;6.50;99.90;;;;;;4922627;29;20728;-91
2021/04/02 12:23:25;;;;;;;14.33;5.40;;;6.50;99.90;;;;;;4919552;29;20234;-91
2021/04/02 12:25:57;;;;;;;15.13;6.37;;;6.50;99.90;;;;;;4919969;29;20247;-91
2021/04/02 12:28:29;;;;;;;18.67;6.47;;;6.50;99.90;;;;;;4919325;29;20362;-91
2021/04/02 12:31:01;;;;;;;16.43;6.53;;;6.50;99.90;;;;;;4918969;29;20232;-91
2021/04/02 12:33:32;;;;;;;14.27;6.10;;;6.50;99.90;;;;;;4919273;29;20220;-92
2021/04/02 12:36:07;;;;;;;16.27;6.30;;;6.50;99.90;;;;;;4920076;29;20600;-92
2021/04/02 12:38:38;;;;;;;12.97;6.03;;;6.50;99.90;;;;;;4918963;29;20307;-91
2021/04/02 12:41:10;;;;;;;9.97;5.60;;;6.50;99.90;;;;;;4918574;29;20276;-91
2021/04/02 12:43:45;;;;;;;9.43;5.43;;;6.50;99.90;;;;;;4920122;29;20220;-91
2021/04/02 12:46:15;;;;;;;12.93;5.23;;;6.40;99.90;;;;;;4923859;29;20213;-91
2021/04/02 12:48:46;;;;;;;10.03;4.30;;;6.50;99.90;;;;;;4925476;29;20205;-92
2021/04/02 12:51:17;;;;;;;9.70;4.63;;;6.50;99.90;;;;;;4924292;29;20209;-92
2021/04/02 12:53:50;;;;;;;11.47;4.77;;;6.40;99.90;;;;;;4936675;29;20208;-90
2021/04/02 12:56:21;;;;;;;11.20;4.90;;;6.40;99.90;;;;;;4936742;29;20213;-92
2021/04/02 12:58:54;;;;;;;19.80;5.23;;;6.40;99.90;;;;;;4926257;29;20261;-91
2021/04/02 13:01:25;;;;;;;11.80;4.97;;;6.40;99.90;;;;;;4922694;29;20730;-91
2021/04/02 13:03:57;;;;;;;17.83;5.47;;;6.40;99.90;;;;;;4920854;29;20217;-92
2021/04/02 13:06:28;;;;;;;12.23;4.67;;;6.40;99.90;;;;;;4926719;29;20224;-92
2021/04/02 13:08:59;;;;;;;15.90;6.60;;;6.50;99.90;;;;;;4930451;29;20213;-91
2021/04/02 13:11:30;;;;;;;10.93;6.20;;;6.50;99.90;;;;;;4932762;29;20227;-91
2021/04/02 13:14:02;;;;;;;14.57;5.87;;;6.40;99.90;;;;;;4931945;29;20264;-91
2021/04/02 13:16:36;;;;;;;15.93;5.23;;;6.50;99.90;;;;;;4929479;29;20212;-91
2021/04/02 13:19:09;;;;;;;13.97;5.13;;;6.50;99.90;;;;;;4929827;29;20233;-91